Time;durP1;ratioP1;P1;durP2;ratioP2;P2;SDS_P1;SDS_P2;PMS_P1;PMS_P2;Temp;Humidity;BMP_temperature;BMP_pressure;BME280_temperature;BME280_humidity;BME280_pressure;Samples;Min_cycle;Max_cycle;Signal;HPM_P1;HPM_P2
2021/12/30 00:00:53;;;;;;;72.90;28.60;;;;;;;2.08;100.00;98904.52;103555;1302;24218;-26
2021/12/30 00:03:19;;;;;;;68.80;23.40;;;;;;;2.06;100.00;98906.68;103532;1302;24190;-29
2021/12/30 00:05:45;;;;;;;77.70;30.90;;;;;;;2.06;100.00;98908.08;103541;1302;24331;-25
2021/12/30 00:08:11;;;;;;;98.00;32.30;;;;;;;2.02;100.00;98912.04;103575;1302;24276;-25
2021/12/30 00:10:37;;;;;;;74.20;28.30;;;;;;;2.01;100.00;98912.15;103650;1302;24299;-24
2021/12/30 00:13:03;;;;;;;68.10;29.70;;;;;;;1.96;100.00;98914.41;103538;1302;24482;-29
2021/12/30 00:15:29;;;;;;;60.80;24.60;;;;;;;1.90;100.00;98920.45;103512;1301;24225;-25
2021/12/30 00:17:55;;;;;;;68.40;29.00;;;;;;;1.93;100.00;98919.50;103561;1302;24253;-24
2021/12/30 00:20:21;;;;;;;65.00;27.00;;;;;;;1.92;100.00;98916.00;103557;1301;24383;-29
2021/12/30 00:22:47;;;;;;;64.60;27.80;;;;;;;1.90;100.00;98916.21;103509;1302;24337;-29
2021/12/30 00:25:13;;;;;;;69.80;29.80;;;;;;;1.91;100.00;98914.16;103492;1302;24197;-24
2021/12/30 00:27:39;;;;;;;62.60;26.50;;;;;;;1.90;100.00;98910.05;103539;1302;23942;-31
2021/12/30 00:30:07;;;;;;;53.60;25.60;;;;;;;1.91;100.00;98917.34;103563;1302;22757;-24
2021/12/30 00:32:33;;;;;;;65.90;25.10;;;;;;;1.94;100.00;98923.95;103546;1302;23842;-29
2021/12/30 00:34:59;;;;;;;48.50;23.40;;;;;;;1.98;100.00;98924.64;103570;1302;25360;-24
2021/12/30 00:37:24;;;;;;;53.60;22.70;;;;;;;2.00;100.00;98928.48;103582;1302;24250;-25
2021/12/30 00:39:50;;;;;;;57.20;25.50;;;;;;;2.04;100.00;98926.45;103512;1302;24334;-24
2021/12/30 00:42:16;;;;;;;77.40;29.30;;;;;;;2.04;100.00;98927.56;103526;1302;24193;-29
2021/12/30 00:44:42;;;;;;;72.50;27.10;;;;;;;2.03;100.00;98927.40;103498;1302;24388;-24
2021/12/30 00:47:08;;;;;;;52.80;25.90;;;;;;;2.02;100.00;98924.21;103505;1302;24225;-29
2021/12/30 00:49:34;;;;;;;50.40;23.10;;;;;;;2.01;100.00;98928.14;103514;1302;24186;-29
2021/12/30 00:52:00;;;;;;;51.50;21.90;;;;;;;1.99;100.00;98927.89;103538;1302;24263;-29
2021/12/30 00:54:26;;;;;;;60.90;23.80;;;;;;;1.96;100.00;98928.14;103526;1301;24351;-25
2021/12/30 00:56:51;;;;;;;49.40;21.60;;;;;;;1.96;100.00;98936.64;103505;1302;24342;-28
2021/12/30 00:59:17;;;;;;;39.60;16.90;;;;;;;2.01;100.00;98935.40;103529;1302;24216;-29
2021/12/30 01:01:43;;;;;;;49.80;20.20;;;;;;;2.06;100.00;98939.54;103485;1302;24327;-29
2021/12/30 01:04:09;;;;;;;59.20;19.70;;;;;;;2.07;100.00;98933.75;103546;1302;24176;-28
2021/12/30 01:06:35;;;;;;;48.80;21.20;;;;;;;2.11;100.00;98934.55;103615;1302;24183;-29
2021/12/30 01:09:02;;;;;;;53.20;23.50;;;;;;;2.07;100.00;98935.48;103508;1302;24269;-29
2021/12/30 01:11:28;;;;;;;63.10;27.00;;;;;;;2.01;100.00;98935.73;103516;1302;22847;-27
2021/12/30 01:16:24;;;;;;;61.90;25.60;;;;;;;1.87;100.00;98933.86;103481;1302;24256;-29
2021/12/30 01:21:21;;;;;;;64.80;21.50;;;;;;;1.77;100.00;98938.67;103541;1302;26189;-24
2021/12/30 01:23:47;;;;;;;40.30;20.50;;;;;;;1.78;100.00;98939.08;103426;1302;24314;-31
2021/12/30 01:26:13;;;;;;;55.10;21.80;;;;;;;1.80;100.00;98943.00;103526;1302;24284;-29
2021/12/30 01:28:39;;;;;;;41.70;21.00;;;;;;;1.83;100.00;98940.51;103540;1302;22621;-26
2021/12/30 01:31:05;;;;;;;60.40;22.40;;;;;;;1.91;100.00;98941.94;103582;1302;24190;-29
2021/12/30 01:33:31;;;;;;;67.60;23.80;;;;;;;1.85;100.00;98941.25;103352;1302;24297;-24
2021/12/30 01:35:57;;;;;;;45.50;22.70;;;;;;;1.83;100.00;98938.89;103532;1302;24248;-28
2021/12/30 01:38:23;;;;;;;45.20;19.20;;;;;;;1.85;100.00;98929.94;103504;1301;24193;-28
2021/12/30 01:40:50;;;;;;;45.90;22.20;;;;;;;1.77;100.00;98935.66;103503;1300;24309;-28
2021/12/30 01:43:16;;;;;;;50.70;21.70;;;;;;;1.85;100.00;98933.87;103505;1302;24151;-27
2021/12/30 01:45:42;;;;;;;48.10;20.80;;;;;;;1.73;100.00;98936.41;103501;1302;24335;-27
2021/12/30 01:48:08;;;;;;;43.30;20.70;;;;;;;1.72;100.00;98940.96;103521;1302;24254;-25
2021/12/30 01:50:35;;;;;;;38.20;16.60;;;;;;;1.65;100.00;98937.17;103544;1302;24253;-25
2021/12/30 01:53:01;;;;;;;41.60;19.20;;;;;;;1.64;100.00;98942.64;103617;1301;24185;-28
2021/12/30 01:55:27;;;;;;;41.30;16.90;;;;;;;1.62;100.00;98942.45;103571;1302;22635;-30
2021/12/30 01:57:53;;;;;;;49.20;19.80;;;;;;;1.63;100.00;98942.04;103495;1302;24346;-24
2021/12/30 02:00:21;;;;;;;42.70;18.50;;;;;;;1.62;100.00;98937.99;103384;1302;24255;-24
2021/12/30 02:02:47;;;;;;;67.00;21.80;;;;;;;1.61;100.00;98932.47;103511;1302;24321;-25
2021/12/30 02:05:13;;;;;;;38.30;19.00;;;;;;;1.63;100.00;98933.17;103484;1302;22779;-25
2021/12/30 02:07:39;;;;;;;57.30;20.00;;;;;;;1.67;100.00;98940.88;103469;1302;22517;-23
2021/12/30 02:10:06;;;;;;;64.70;25.20;;;;;;;1.67;100.00;98941.09;103526;1302;24237;-30
2021/12/30 02:12:34;;;;;;;49.00;19.30;;;;;;;1.60;100.00;98936.99;103514;1302;24193;-30
2021/12/30 02:14:59;;;;;;;51.60;20.60;;;;;;;1.64;100.00;98942.64;103543;1302;22734;-25
2021/12/30 02:17:26;;;;;;;56.30;22.80;;;;;;;1.68;100.00;98949.64;103601;1302;24250;-31
2021/12/30 02:19:57;;;;;;;44.70;19.40;;;;;;;1.68;100.00;98947.14;103623;1302;24304;-24
2021/12/30 02:22:24;;;;;;;61.40;22.50;;;;;;;1.74;100.00;98949.52;103547;1302;24227;-25
2021/12/30 02:24:51;;;;;;;67.70;22.50;;;;;;;1.67;100.00;98958.92;103507;1302;23856;-24
2021/12/30 02:27:17;;;;;;;55.00;19.90;;;;;;;1.73;100.00;98961.46;103478;1302;24192;-28
2021/12/30 02:29:43;;;;;;;53.90;20.60;;;;;;;1.76;100.00;98966.46;103571;1302;24349;-29
2021/12/30 02:32:09;;;;;;;48.10;18.00;;;;;;;1.81;100.00;98972.15;103592;1302;24188;-25
2021/12/30 02:34:36;;;;;;;43.00;18.20;;;;;;;1.84;100.00;98971.84;103521;1302;24261;-24
2021/12/30 02:37:03;;;;;;;65.00;19.40;;;;;;;1.89;100.00;98977.08;103559;1302;24328;-24
2021/12/30 02:39:30;;;;;;;47.50;19.70;;;;;;;1.94;100.00;98981.88;103577;1302;24195;-25
2021/12/30 02:41:55;;;;;;;47.90;20.20;;;;;;;1.93;100.00;98982.34;103453;1302;22697;-28
2021/12/30 02:44:21;;;;;;;86.10;35.90;;;;;;;1.96;100.00;98981.14;103543;1302;24215;-24
2021/12/30 02:46:51;;;;;;;50.10;21.20;;;;;;;1.92;100.00;98984.92;103450;1302;24353;-24
2021/12/30 02:49:17;;;;;;;55.30;21.50;;;;;;;1.90;100.00;98985.98;103561;1302;24374;-31
2021/12/30 02:51:43;;;;;;;74.30;23.50;;;;;;;1.95;100.00;98985.77;103520;1302;23840;-27
2021/12/30 02:54:09;;;;;;;47.50;20.80;;;;;;;2.03;100.00;98985.58;103516;1302;24338;-25
2021/12/30 02:56:35;;;;;;;40.40;18.10;;;;;;;2.00;100.00;98986.88;103540;1302;24352;-28
2021/12/30 02:59:02;;;;;;;63.50;20.80;;;;;;;2.04;100.00;98986.31;103526;1302;24125;-25
2021/12/30 03:01:30;;;;;;;50.80;20.40;;;;;;;2.02;100.00;98981.15;103575;1302;24183;-25
2021/12/30 03:03:56;;;;;;;59.40;23.90;;;;;;;2.04;100.00;98986.48;103570;1302;24204;-29
2021/12/30 03:06:22;;;;;;;53.30;20.80;;;;;;;2.07;100.00;98989.55;103526;1302;24309;-29
2021/12/30 03:08:49;;;;;;;53.00;20.80;;;;;;;2.11;100.00;98994.78;103516;1302;24219;-29
2021/12/30 03:11:15;;;;;;;53.10;18.60;;;;;;;2.12;100.00;98996.66;103527;1302;25368;-29
2021/12/30 03:13:43;;;;;;;51.60;18.00;;;;;;;2.15;100.00;98994.27;103550;1301;24225;-28
2021/12/30 03:16:12;;;;;;;58.30;19.40;;;;;;;2.18;100.00;99001.95;103448;1302;22623;-24
2021/12/30 03:18:38;;;;;;;46.20;17.60;;;;;;;2.16;100.00;99005.81;103556;1302;23992;-24
2021/12/30 03:21:05;;;;;;;67.80;21.30;;;;;;;2.09;100.00;99008.63;103539;1302;24220;-29
2021/12/30 03:23:32;;;;;;;58.10;18.50;;;;;;;2.01;100.00;99008.49;103520;1302;24202;-30
2021/12/30 03:25:58;;;;;;;42.60;16.70;;;;;;;2.04;100.00;99006.96;103181;1302;24160;-25
2021/12/30 03:28:24;;;;;;;45.50;18.50;;;;;;;2.03;100.00;99007.48;103564;1302;24188;-29
2021/12/30 03:30:51;;;;;;;53.40;20.40;;;;;;;2.00;100.00;98997.80;103555;1301;22523;-29
2021/12/30 03:33:17;;;;;;;84.20;21.90;;;;;;;2.01;100.00;98992.67;103539;1302;24178;-24
2021/12/30 03:35:43;;;;;;;54.10;21.00;;;;;;;2.01;100.00;98991.22;103432;1302;24198;-29
2021/12/30 03:38:10;;;;;;;60.10;23.40;;;;;;;2.01;100.00;98991.75;103571;1302;24260;-26
2021/12/30 03:40:35;;;;;;;55.90;20.20;;;;;;;1.96;100.00;98993.61;103522;1302;24298;-24
2021/12/30 03:43:01;;;;;;;55.20;21.10;;;;;;;1.93;100.00;99004.35;103519;1302;24476;-24
2021/12/30 03:45:27;;;;;;;57.50;20.90;;;;;;;1.95;100.00;99007.55;103545;1302;24199;-24
2021/12/30 03:47:54;;;;;;;58.60;20.40;;;;;;;1.95;100.00;99008.63;103569;1301;24243;-28
2021/12/30 03:50:23;;;;;;;57.80;20.10;;;;;;;1.92;100.00;99012.79;103515;1302;24538;-28
2021/12/30 03:52:53;;;;;;;66.90;19.90;;;;;;;1.95;100.00;99012.65;103553;1302;23931;-29
2021/12/30 03:55:20;;;;;;;67.30;23.20;;;;;;;2.01;100.00;99018.26;103536;1302;23938;-31
2021/12/30 03:57:46;;;;;;;74.20;28.70;;;;;;;2.03;100.00;99017.48;103492;1302;24227;-29
2021/12/30 04:00:12;;;;;;;70.40;30.60;;;;;;;2.01;100.00;99025.48;103519;1302;24307;-25
2021/12/30 04:02:38;;;;;;;85.40;29.00;;;;;;;1.98;100.00;99026.32;103512;1302;24193;-26
2021/12/30 04:05:05;;;;;;;59.60;25.10;;;;;;;1.99;100.00;99033.08;103542;1302;24346;-24
2021/12/30 04:07:30;;;;;;;73.80;24.40;;;;;;;2.00;100.00;99034.74;103522;1302;24286;-28
2021/12/30 04:09:56;;;;;;;65.80;25.10;;;;;;;2.06;100.00;99036.29;103169;1302;514200;-30
2021/12/30 04:12:22;;;;;;;58.70;21.70;;;;;;;2.08;100.00;99040.45;103503;1302;22643;-29
2021/12/30 04:14:48;;;;;;;60.60;23.60;;;;;;;2.07;100.00;99039.58;103543;1302;24167;-29
2021/12/30 04:17:14;;;;;;;57.80;21.40;;;;;;;2.06;100.00;99033.05;103634;1302;24237;-29
2021/12/30 04:19:40;;;;;;;42.00;17.20;;;;;;;2.07;100.00;99033.55;103562;1302;22506;-29
2021/12/30 04:22:06;;;;;;;44.20;18.90;;;;;;;2.05;100.00;99029.85;103505;1302;24220;-29
2021/12/30 04:24:33;;;;;;;55.50;22.40;;;;;;;2.06;100.00;99023.89;103533;1302;24218;-29
2021/12/30 04:26:58;;;;;;;60.40;21.90;;;;;;;2.09;100.00;99023.80;103496;1302;22730;-29
2021/12/30 04:29:24;;;;;;;55.00;22.00;;;;;;;2.07;100.00;99026.87;103583;1302;24327;-27
2021/12/30 04:31:50;;;;;;;40.80;17.10;;;;;;;2.07;100.00;99024.71;103583;1303;24229;-28
2021/12/30 04:34:16;;;;;;;57.00;18.30;;;;;;;2.06;100.00;99022.88;103588;1302;22518;-28
2021/12/30 04:36:42;;;;;;;54.40;19.40;;;;;;;2.03;100.00;99021.03;103552;1302;24185;-24
2021/12/30 04:39:09;;;;;;;58.50;16.00;;;;;;;2.07;100.00;99018.33;103519;1302;24287;-29
2021/12/30 04:41:35;;;;;;;52.40;20.10;;;;;;;2.06;100.00;99025.70;103514;1302;24435;-24
2021/12/30 04:44:00;;;;;;;49.50;20.10;;;;;;;2.10;100.00;99030.01;103460;1302;24219;-24
2021/12/30 04:46:26;;;;;;;37.10;17.30;;;;;;;2.12;100.00;99041.56;103558;1302;24208;-25
2021/12/30 04:48:52;;;;;;;59.60;20.40;;;;;;;2.18;100.00;99048.33;103513;1302;24436;-29
2021/12/30 04:51:18;;;;;;;47.30;16.90;;;;;;;2.18;100.00;99046.60;103442;1302;22641;-29
2021/12/30 04:53:44;;;;;;;36.50;15.50;;;;;;;2.21;100.00;99037.95;103460;1301;24227;-29
2021/12/30 04:56:10;;;;;;;51.90;17.30;;;;;;;2.20;100.00;99048.17;103493;1302;22625;-29
2021/12/30 04:58:37;;;;;;;39.40;18.40;;;;;;;2.21;100.00;99052.98;103472;1302;25357;-28
2021/12/30 05:01:03;;;;;;;34.20;16.70;;;;;;;2.19;100.00;99046.70;103555;1302;24252;-29
2021/12/30 05:03:29;;;;;;;57.00;17.70;;;;;;;2.20;100.00;99045.09;103540;1302;24409;-31
2021/12/30 05:05:55;;;;;;;42.50;16.60;;;;;;;2.24;100.00;99047.05;103447;1302;24177;-24
2021/12/30 05:08:22;;;;;;;40.80;17.90;;;;;;;2.19;100.00;99045.79;103531;1302;24189;-29
2021/12/30 05:10:49;;;;;;;41.90;19.40;;;;;;;2.20;100.00;99044.59;103574;1302;23854;-27
2021/12/30 05:13:15;;;;;;;50.50;19.60;;;;;;;2.16;100.00;99039.91;103496;1302;22506;-28
2021/12/30 05:15:41;;;;;;;44.70;19.80;;;;;;;2.20;100.00;99034.56;103498;1302;24301;-29
2021/12/30 05:18:08;;;;;;;48.20;19.40;;;;;;;2.17;100.00;99031.46;103421;1302;24250;-31
2021/12/30 05:20:34;;;;;;;41.30;18.20;;;;;;;2.18;100.00;99025.38;103505;1302;24291;-29
2021/12/30 05:23:00;;;;;;;34.10;16.20;;;;;;;2.15;100.00;99019.48;103532;1302;22723;-24
2021/12/30 05:25:27;;;;;;;53.40;20.50;;;;;;;2.14;100.00;99028.80;103523;1302;22689;-29
2021/12/30 05:27:53;;;;;;;58.50;20.20;;;;;;;2.18;100.00;99041.77;103540;1301;24321;-28
2021/12/30 05:30:21;;;;;;;45.00;18.80;;;;;;;2.10;100.00;99048.23;103507;1302;24186;-24
2021/12/30 05:32:48;;;;;;;49.10;19.20;;;;;;;2.02;100.00;99046.21;103540;1302;22732;-24
2021/12/30 05:35:14;;;;;;;34.30;15.70;;;;;;;1.94;100.00;99043.95;103477;1302;24295;-25
2021/12/30 05:37:40;;;;;;;38.30;16.00;;;;;;;1.74;100.00;99042.89;103428;1302;24256;-29
2021/12/30 05:40:08;;;;;;;44.00;20.40;;;;;;;1.65;100.00;99047.38;103506;1302;24320;-26
2021/12/30 05:42:34;;;;;;;48.70;20.00;;;;;;;1.55;100.00;99051.83;103532;1302;24260;-27
2021/12/30 05:45:00;;;;;;;46.40;19.70;;;;;;;1.47;100.00;99057.52;103575;1302;24303;-26
2021/12/30 05:47:26;;;;;;;31.90;15.20;;;;;;;1.45;100.00;99061.86;103549;1302;24253;-27
2021/12/30 05:49:52;;;;;;;44.70;16.10;;;;;;;1.44;100.00;99065.27;103529;1302;24179;-29
2021/12/30 05:52:18;;;;;;;61.70;21.20;;;;;;;1.57;100.00;99066.48;103547;1302;22512;-25
2021/12/30 05:54:44;;;;;;;49.30;21.50;;;;;;;1.51;100.00;99060.59;103510;1302;24514;-29
2021/12/30 05:57:10;;;;;;;34.30;16.70;;;;;;;1.54;100.00;99055.26;103538;1302;24297;-24
2021/12/30 05:59:36;;;;;;;45.40;16.20;;;;;;;1.54;100.00;99063.59;103481;1302;24283;-24
2021/12/30 06:02:02;;;;;;;47.40;16.30;;;;;;;1.57;100.00;99065.78;103577;1302;24266;-26
2021/12/30 06:04:28;;;;;;;38.20;17.80;;;;;;;1.69;100.00;99066.74;103583;1302;24174;-26
2021/12/30 06:06:54;;;;;;;39.30;17.90;;;;;;;1.74;100.00;99060.59;103611;1302;22503;-31
2021/12/30 06:09:22;;;;;;;42.00;16.10;;;;;;;1.70;100.00;99060.67;103555;1302;24220;-31
2021/12/30 06:11:48;;;;;;;37.90;17.30;;;;;;;1.70;100.00;99062.59;103527;1302;24344;-29
2021/12/30 06:14:14;;;;;;;34.80;16.80;;;;;;;1.77;100.00;99068.03;103447;1302;24281;-29
2021/12/30 06:16:40;;;;;;;32.50;15.00;;;;;;;1.82;100.00;99068.06;103586;1302;22614;-25
2021/12/30 06:19:05;;;;;;;30.00;14.80;;;;;;;1.79;100.00;99064.39;103594;1302;24263;-24
2021/12/30 06:21:31;;;;;;;45.90;17.90;;;;;;;1.77;100.00;99062.21;103577;1302;24405;-24
2021/12/30 06:23:57;;;;;;;32.50;13.10;;;;;;;1.78;100.00;99066.89;103551;1302;22511;-25
2021/12/30 06:26:23;;;;;;;28.90;14.10;;;;;;;1.87;100.00;99061.69;103564;1302;24218;-30
2021/12/30 06:28:49;;;;;;;47.50;18.40;;;;;;;1.97;100.00;99058.17;103554;1302;24197;-29
2021/12/30 06:31:15;;;;;;;39.00;19.20;;;;;;;1.95;100.00;99058.42;103453;1302;24424;-24
2021/12/30 06:33:41;;;;;;;40.90;17.20;;;;;;;1.92;100.00;99065.73;103473;1302;22510;-31
2021/12/30 06:36:07;;;;;;;35.60;16.10;;;;;;;1.88;100.00;99063.08;103539;1302;24273;-29
2021/12/30 06:38:33;;;;;;;45.00;16.80;;;;;;;1.85;100.00;99055.12;103582;1302;24192;-25
2021/12/30 06:41:00;;;;;;;44.60;16.10;;;;;;;1.85;100.00;99055.48;103462;1302;24213;-25
2021/12/30 06:43:25;;;;;;;26.80;12.70;;;;;;;1.92;100.00;99062.27;103435;1302;24321;-29
2021/12/30 06:45:51;;;;;;;35.60;15.60;;;;;;;1.96;100.00;99066.38;103487;1302;24364;-30
2021/12/30 06:48:17;;;;;;;38.50;15.10;;;;;;;1.92;100.00;99065.21;103572;1302;24215;-27
2021/12/30 06:50:51;;;;;;;43.50;17.00;;;;;;;1.98;100.00;99074.27;103474;1301;24195;-24
2021/12/30 06:53:19;;;;;;;39.20;16.80;;;;;;;2.01;100.00;99075.50;103541;1302;24240;-29
2021/12/30 06:55:46;;;;;;;28.00;16.40;;;;;;;2.05;100.00;99076.61;103567;1302;22517;-30
2021/12/30 06:58:12;;;;;;;39.30;16.50;;;;;;;1.98;100.00;99084.05;103527;1302;24234;-26
2021/12/30 07:00:38;;;;;;;38.90;17.30;;;;;;;1.99;100.00;99095.09;103501;1302;24253;-25
2021/12/30 07:03:03;;;;;;;40.10;15.00;;;;;;;1.99;100.00;99100.85;103435;1302;24181;-29
2021/12/30 07:05:29;;;;;;;42.70;17.20;;;;;;;1.95;100.00;99094.55;103519;1302;24337;-24
2021/12/30 07:07:55;;;;;;;34.00;14.60;;;;;;;1.88;100.00;99095.23;103592;1302;24195;-27
2021/12/30 07:10:21;;;;;;;34.50;16.10;;;;;;;1.88;100.00;99096.13;103560;1302;24374;-24
2021/12/30 07:12:47;;;;;;;36.60;15.00;;;;;;;1.89;100.00;99096.96;103575;1302;22525;-24
2021/12/30 07:15:13;;;;;;;35.00;17.30;;;;;;;1.95;100.00;99094.44;103488;1302;24190;-26
2021/12/30 07:17:40;;;;;;;35.60;17.00;;;;;;;2.06;100.00;99096.09;103497;1302;24139;-24
2021/12/30 07:20:06;;;;;;;24.00;12.90;;;;;;;2.06;100.00;99103.73;103542;1302;24214;-25
2021/12/30 07:22:32;;;;;;;39.70;17.50;;;;;;;2.15;100.00;99112.80;103545;1302;24233;-29
2021/12/30 07:24:58;;;;;;;37.90;17.30;;;;;;;2.15;100.00;99116.98;103398;1302;24188;-23
2021/12/30 07:27:24;;;;;;;41.00;18.70;;;;;;;2.15;100.00;99111.15;103508;1302;24380;-26
2021/12/30 07:29:49;;;;;;;44.70;20.70;;;;;;;2.22;100.00;99116.96;103471;1302;24189;-30
2021/12/30 07:32:15;;;;;;;37.20;14.80;;;;;;;2.25;100.00;99117.58;103448;1302;22784;-28
2021/12/30 07:34:41;;;;;;;34.40;15.50;;;;;;;2.30;100.00;99122.23;103563;1302;24348;-24
2021/12/30 07:37:07;;;;;;;40.00;19.30;;;;;;;2.33;100.00;99124.75;103512;1302;24299;-27
2021/12/30 07:39:33;;;;;;;30.10;14.80;;;;;;;2.36;100.00;99117.77;103510;1302;24323;-25
2021/12/30 07:41:59;;;;;;;37.50;16.70;;;;;;;2.40;100.00;99116.83;103495;1302;24337;-25
2021/12/30 07:44:25;;;;;;;34.60;16.50;;;;;;;2.41;100.00;99110.44;103557;1302;24237;-25
2021/12/30 07:46:51;;;;;;;39.60;18.20;;;;;;;2.43;100.00;99115.00;103509;1302;24177;-24
2021/12/30 07:49:17;;;;;;;33.00;16.90;;;;;;;2.54;100.00;99111.59;103553;1302;24310;-29
2021/12/30 07:51:43;;;;;;;22.00;11.40;;;;;;;2.65;99.98;99114.23;103671;1303;24297;-24
2021/12/30 07:54:09;;;;;;;33.90;14.20;;;;;;;2.61;99.99;99118.65;103554;1302;24284;-29
2021/12/30 07:56:34;;;;;;;42.60;19.20;;;;;;;2.61;100.00;99124.17;103520;1302;22511;-32
2021/12/30 07:59:00;;;;;;;32.80;14.10;;;;;;;2.54;100.00;99128.48;103537;1302;22715;-29
2021/12/30 08:01:26;;;;;;;30.60;13.60;;;;;;;2.56;100.00;99131.98;103552;1302;24195;-30
2021/12/30 08:03:52;;;;;;;25.40;13.00;;;;;;;2.66;100.00;99134.40;103669;1302;24509;-26
2021/12/30 08:06:18;;;;;;;30.00;14.20;;;;;;;2.69;100.00;99137.42;103661;1302;24454;-30
2021/12/30 08:08:44;;;;;;;25.40;14.50;;;;;;;2.81;100.00;99139.13;103709;1302;24382;-26
2021/12/30 08:11:10;;;;;;;32.70;15.20;;;;;;;2.76;100.00;99138.92;103680;1302;24306;-25
2021/12/30 08:13:36;;;;;;;21.30;10.40;;;;;;;2.75;100.00;99132.05;103745;1302;24156;-24
2021/12/30 08:16:02;;;;;;;28.20;12.30;;;;;;;2.88;99.93;99137.16;103650;1303;24259;-24
2021/12/30 08:18:28;;;;;;;26.00;12.80;;;;;;;2.85;100.00;99140.08;103707;1302;24318;-24
2021/12/30 08:20:56;;;;;;;31.10;13.20;;;;;;;2.87;100.00;99138.29;103724;1302;24230;-25
2021/12/30 08:23:22;;;;;;;36.10;14.40;;;;;;;2.92;100.00;99135.34;103767;1302;22511;-31
2021/12/30 08:25:51;;;;;;;23.80;13.10;;;;;;;2.96;100.00;99148.20;103638;1303;24363;-29
2021/12/30 08:28:18;;;;;;;27.00;13.20;;;;;;;3.03;100.00;99162.02;103635;1302;22506;-30
2021/12/30 08:30:44;;;;;;;34.70;12.80;;;;;;;3.13;100.00;99166.34;103740;1302;24198;-29
2021/12/30 08:33:10;;;;;;;23.70;12.70;;;;;;;3.12;100.00;99166.20;103610;1302;24437;-26
2021/12/30 08:35:36;;;;;;;29.30;14.10;;;;;;;3.11;99.98;99171.23;103701;1302;24225;-30
2021/12/30 08:38:02;;;;;;;30.00;15.10;;;;;;;3.18;100.00;99165.75;103647;1302;22511;-27
2021/12/30 08:40:28;;;;;;;25.20;13.10;;;;;;;3.16;100.00;99171.67;103729;1302;24211;-26
2021/12/30 08:42:54;;;;;;;27.60;13.70;;;;;;;3.24;100.00;99173.09;103687;1302;24257;-29
2021/12/30 08:45:20;;;;;;;28.30;11.90;;;;;;;3.25;100.00;99175.68;103618;1303;22526;-30
2021/12/30 08:47:46;;;;;;;31.60;13.30;;;;;;;3.38;99.92;99176.16;103594;1302;24172;-30
2021/12/30 08:50:13;;;;;;;26.80;10.60;;;;;;;3.38;99.90;99176.70;103633;1302;24318;-25
2021/12/30 08:52:39;;;;;;;27.40;13.40;;;;;;;3.54;99.09;99177.16;103586;1302;24301;-29
2021/12/30 08:55:06;;;;;;;34.80;14.50;;;;;;;3.50;98.81;99187.48;103494;1302;24320;-29
2021/12/30 08:57:32;;;;;;;20.70;11.50;;;;;;;3.49;98.59;99192.60;103565;1302;24192;-27
2021/12/30 08:59:58;;;;;;;23.50;13.50;;;;;;;3.56;97.86;99190.75;103531;1302;24204;-29
2021/12/30 09:02:24;;;;;;;34.50;12.60;;;;;;;3.52;98.21;99185.20;103574;1302;24315;-25
2021/12/30 09:04:50;;;;;;;25.00;12.40;;;;;;;3.42;98.05;99176.35;103635;1302;24323;-26
2021/12/30 09:07:18;;;;;;;31.30;12.30;;;;;;;3.36;99.37;99181.65;103721;1302;24247;-26
2021/12/30 09:09:44;;;;;;;24.70;12.30;;;;;;;3.41;99.49;99183.64;103732;1302;24185;-30
2021/12/30 09:12:11;;;;;;;23.40;12.30;;;;;;;3.32;100.00;99178.54;103471;1302;24243;-29
2021/12/30 09:14:37;;;;;;;19.10;10.40;;;;;;;3.50;100.00;99167.44;103544;1302;22510;-31
2021/12/30 09:17:03;;;;;;;20.30;11.60;;;;;;;3.55;99.95;99168.60;103566;1302;24252;-24
2021/12/30 09:19:29;;;;;;;22.50;10.50;;;;;;;3.61;99.98;99171.15;103554;1303;24256;-24
2021/12/30 09:21:56;;;;;;;21.60;11.20;;;;;;;3.66;99.82;99170.06;103526;1302;24330;-25
2021/12/30 09:24:22;;;;;;;27.40;12.20;;;;;;;3.59;99.99;99170.31;103488;1302;24356;-31
2021/12/30 09:26:48;;;;;;;22.20;9.90;;;;;;;3.93;99.15;99166.90;103566;1302;22528;-24
2021/12/30 09:29:14;;;;;;;18.90;8.40;;;;;;;3.82;98.45;99165.11;103621;1302;24294;-32
2021/12/30 09:31:41;;;;;;;25.20;11.40;;;;;;;3.78;99.58;99169.75;103657;1302;24374;-23
2021/12/30 09:34:07;;;;;;;17.40;10.10;;;;;;;3.71;99.67;99164.43;103479;1302;24289;-30
2021/12/30 09:36:34;;;;;;;16.80;7.20;;;;;;;3.75;99.98;99165.25;103470;1302;24333;-26
2021/12/30 09:39:01;;;;;;;16.10;9.50;;;;;;;3.61;100.00;99162.85;103593;1302;25239;-30
2021/12/30 09:41:27;;;;;;;19.90;10.80;;;;;;;3.36;100.00;99163.81;103538;1302;24229;-24
2021/12/30 09:43:53;;;;;;;17.70;9.50;;;;;;;3.64;100.00;99162.15;103494;1302;24224;-26
2021/12/30 09:46:19;;;;;;;17.80;11.40;;;;;;;3.54;100.00;99157.52;103625;1302;24239;-24
2021/12/30 09:48:45;;;;;;;18.60;10.30;;;;;;;3.39;100.00;99156.45;103506;1302;24344;-26
2021/12/30 09:51:11;;;;;;;22.30;11.40;;;;;;;3.47;100.00;99154.48;103674;1302;24198;-24
2021/12/30 09:53:37;;;;;;;18.10;10.30;;;;;;;3.45;100.00;99161.67;103492;1302;24356;-28
2021/12/30 09:56:04;;;;;;;17.30;9.50;;;;;;;3.53;100.00;99159.44;103507;1302;24404;-25
2021/12/30 09:58:30;;;;;;;22.50;11.80;;;;;;;3.55;100.00;99159.58;103536;1302;24190;-30
2021/12/30 10:00:56;;;;;;;14.70;7.70;;;;;;;3.70;100.00;99163.70;103547;1302;22523;-30
2021/12/30 10:03:22;;;;;;;10.70;4.90;;;;;;;3.84;100.00;99166.15;103465;1302;24243;-24
2021/12/30 10:05:48;;;;;;;21.90;9.60;;;;;;;3.96;100.00;99165.19;103614;1302;24280;-29
2021/12/30 10:08:16;;;;;;;19.80;9.00;;;;;;;3.73;100.00;99164.58;103536;1302;22517;-32
2021/12/30 10:10:44;;;;;;;15.20;6.30;;;;;;;4.02;100.00;99155.90;103515;1302;24253;-28
2021/12/30 10:13:14;;;;;;;12.40;6.70;;;;;;;4.03;100.00;99153.45;103519;1302;24209;-24
2021/12/30 10:15:41;;;;;;;12.80;6.30;;;;;;;3.82;100.00;99149.70;103531;1302;24219;-24
2021/12/30 10:18:07;;;;;;;10.50;5.40;;;;;;;4.28;100.00;99144.82;103474;1302;22535;-30
2021/12/30 10:20:33;;;;;;;14.30;8.00;;;;;;;4.35;100.00;99142.02;103532;1302;24295;-26
2021/12/30 10:23:09;;;;;;;14.00;6.80;;;;;;;4.21;100.00;99143.08;103568;1302;24464;-30
2021/12/30 10:25:36;;;;;;;9.30;7.40;;;;;;;4.26;100.00;99144.75;103562;1302;24377;-31
2021/12/30 10:28:09;;;;;;;9.50;6.60;;;;;;;4.26;100.00;99150.00;103555;1302;24221;-31
2021/12/30 10:30:35;;;;;;;22.10;7.40;;;;;;;4.44;100.00;99154.33;103607;1302;22523;-25
2021/12/30 10:33:11;;;;;;;9.40;4.70;;;;;;;4.10;100.00;99165.30;103499;1302;24186;-32
2021/12/30 10:35:37;;;;;;;8.20;5.30;;;;;;;3.98;100.00;99170.98;103585;1302;24436;-30
2021/12/30 10:38:08;;;;;;;6.80;5.30;;;;;;;4.09;100.00;99174.46;103523;1302;24147;-31
2021/12/30 10:40:37;;;;;;;12.90;6.80;;;;;;;3.99;100.00;99171.79;103586;1302;24343;-31
2021/12/30 10:43:10;;;;;;;10.80;6.40;;;;;;;4.32;100.00;99164.83;103568;1302;24376;-30
2021/12/30 10:45:36;;;;;;;16.10;5.30;;;;;;;4.87;100.00;99155.95;103574;1302;24164;-24
2021/12/30 10:48:02;;;;;;;9.20;5.90;;;;;;;4.70;100.00;99153.70;103619;1302;24214;-29
2021/12/30 10:50:28;;;;;;;13.00;6.70;;;;;;;4.39;100.00;99158.93;103572;1302;24178;-30
2021/12/30 10:52:55;;;;;;;16.40;8.40;;;;;;;4.30;100.00;99152.51;103519;1302;24461;-25
2021/12/30 10:55:22;;;;;;;18.20;9.50;;;;;;;4.38;100.00;99158.20;103531;1302;24326;-30
2021/12/30 10:57:48;;;;;;;14.10;8.30;;;;;;;4.59;100.00;99157.30;103532;1301;24225;-25
2021/12/30 11:00:27;;;;;;;13.10;6.90;;;;;;;4.84;100.00;99162.66;103521;1302;23081;-30
2021/12/30 11:02:53;;;;;;;10.10;6.00;;;;;;;4.62;100.00;99168.40;103598;1302;24339;-24
2021/12/30 11:05:19;;;;;;;12.60;6.70;;;;;;;4.66;100.00;99158.15;103580;1302;24463;-30
2021/12/30 11:07:47;;;;;;;12.90;5.80;;;;;;;4.88;100.00;99157.54;103548;1302;24175;-25
2021/12/30 11:10:14;;;;;;;11.80;5.00;;;;;;;4.78;100.00;99163.95;103530;1302;23954;-25
2021/12/30 11:12:42;;;;;;;9.60;6.30;;;;;;;5.05;100.00;99160.70;103573;1302;24288;-32